sensor_id;sensor_type;location;lat;lon;timestamp;P1;durP1;ratioP1;P2;durP2;ratioP2
69847;SDS011;57143;55.940;37.496;2022-10-03T00:04:18;18.73;;;8.77;;
69847;SDS011;57143;55.940;37.496;2022-10-03T00:06:55;19.42;;;8.32;;
69847;SDS011;57143;55.940;37.496;2022-10-03T00:09:36;18.10;;;8.68;;
69847;SDS011;57143;55.940;37.496;2022-10-03T00:12:17;17.90;;;8.40;;
69847;SDS011;57143;55.940;37.496;2022-10-03T00:15:04;20.50;;;8.82;;
69847;SDS011;57143;55.940;37.496;2022-10-03T00:17:40;19.38;;;8.95;;
69847;SDS011;57143;55.940;37.496;2022-10-03T00:20:26;16.42;;;8.05;;
69847;SDS011;57143;55.940;37.496;2022-10-03T00:23:10;17.60;;;8.55;;
69847;SDS011;57143;55.940;37.496;2022-10-03T00:25:44;19.33;;;8.87;;
69847;SDS011;57143;55.940;37.496;2022-10-03T00:28:38;19.52;;;8.20;;
69847;SDS011;57143;55.940;37.496;2022-10-03T00:31:16;16.70;;;8.00;;
69847;SDS011;57143;55.940;37.496;2022-10-03T00:33:49;18.90;;;8.77;;
69847;SDS011;57143;55.940;37.496;2022-10-03T00:36:31;18.27;;;9.07;;
69847;SDS011;57143;55.940;37.496;2022-10-03T00:39:12;17.00;;;8.13;;
69847;SDS011;57143;55.940;37.496;2022-10-03T00:48:07;19.70;;;8.68;;
69847;SDS011;57143;55.940;37.496;2022-10-03T00:50:58;19.85;;;9.25;;
69847;SDS011;57143;55.940;37.496;2022-10-03T00:54:00;18.80;;;9.20;;
69847;SDS011;57143;55.940;37.496;2022-10-03T00:56:37;16.90;;;8.05;;
69847;SDS011;57143;55.940;37.496;2022-10-03T00:59:30;19.13;;;8.65;;
69847;SDS011;57143;55.940;37.496;2022-10-03T01:02:19;17.25;;;8.50;;
69847;SDS011;57143;55.940;37.496;2022-10-03T01:05:03;16.08;;;7.82;;
69847;SDS011;57143;55.940;37.496;2022-10-03T01:07:54;17.73;;;8.57;;
69847;SDS011;57143;55.940;37.496;2022-10-03T01:10:33;17.77;;;8.93;;
69847;SDS011;57143;55.940;37.496;2022-10-03T01:13:14;17.88;;;9.05;;
69847;SDS011;57143;55.940;37.496;2022-10-03T01:16:00;17.90;;;8.60;;
69847;SDS011;57143;55.940;37.496;2022-10-03T01:18:40;16.95;;;9.02;;
69847;SDS011;57143;55.940;37.496;2022-10-03T01:21:19;18.73;;;9.13;;
69847;SDS011;57143;55.940;37.496;2022-10-03T01:24:06;20.85;;;10.10;;
69847;SDS011;57143;55.940;37.496;2022-10-03T01:26:53;17.98;;;9.95;;
69847;SDS011;57143;55.940;37.496;2022-10-03T01:29:35;21.13;;;10.07;;
69847;SDS011;57143;55.940;37.496;2022-10-03T01:32:30;19.60;;;9.27;;
69847;SDS011;57143;55.940;37.496;2022-10-03T01:35:08;20.43;;;8.70;;
69847;SDS011;57143;55.940;37.496;2022-10-03T01:37:46;19.30;;;9.88;;
69847;SDS011;57143;55.940;37.496;2022-10-03T01:40:22;20.70;;;9.38;;
69847;SDS011;57143;55.940;37.496;2022-10-03T01:42:56;20.40;;;10.38;;
69847;SDS011;57143;55.940;37.496;2022-10-03T01:45:35;18.75;;;9.32;;
69847;SDS011;57143;55.940;37.496;2022-10-03T01:48:11;20.27;;;9.10;;
69847;SDS011;57143;55.940;37.496;2022-10-03T01:50:50;21.38;;;9.30;;
69847;SDS011;57143;55.940;37.496;2022-10-03T01:53:29;18.05;;;9.30;;
69847;SDS011;57143;55.940;37.496;2022-10-03T01:56:05;17.15;;;8.23;;
69847;SDS011;57143;55.940;37.496;2022-10-03T01:58:41;16.85;;;8.85;;
69847;SDS011;57143;55.940;37.496;2022-10-03T02:01:23;18.63;;;9.67;;
69847;SDS011;57143;55.940;37.496;2022-10-03T02:03:59;18.05;;;9.00;;
69847;SDS011;57143;55.940;37.496;2022-10-03T02:06:35;18.25;;;9.07;;
69847;SDS011;57143;55.940;37.496;2022-10-03T02:09:13;18.23;;;8.25;;
69847;SDS011;57143;55.940;37.496;2022-10-03T02:11:56;18.42;;;8.75;;
69847;SDS011;57143;55.940;37.496;2022-10-03T02:14:39;16.13;;;8.33;;
69847;SDS011;57143;55.940;37.496;2022-10-03T02:17:22;17.60;;;8.25;;
69847;SDS011;57143;55.940;37.496;2022-10-03T02:19:59;13.40;;;6.13;;
69847;SDS011;57143;55.940;37.496;2022-10-03T02:22:32;14.65;;;7.30;;
69847;SDS011;57143;55.940;37.496;2022-10-03T02:25:26;13.52;;;6.90;;
69847;SDS011;57143;55.940;37.496;2022-10-03T02:31:38;14.50;;;6.60;;
69847;SDS011;57143;55.940;37.496;2022-10-03T02:34:25;12.65;;;7.28;;
69847;SDS011;57143;55.940;37.496;2022-10-03T02:37:21;13.38;;;6.95;;
69847;SDS011;57143;55.940;37.496;2022-10-03T02:43:17;13.63;;;6.80;;
69847;SDS011;57143;55.940;37.496;2022-10-03T02:46:17;14.20;;;6.50;;
69847;SDS011;57143;55.940;37.496;2022-10-03T02:55:49;12.05;;;6.28;;
69847;SDS011;57143;55.940;37.496;2022-10-03T03:02:24;11.57;;;5.82;;
69847;SDS011;57143;55.940;37.496;2022-10-03T03:05:24;12.73;;;6.45;;
69847;SDS011;57143;55.940;37.496;2022-10-03T03:08:10;13.60;;;6.30;;
69847;SDS011;57143;55.940;37.496;2022-10-03T03:11:06;11.95;;;6.50;;
69847;SDS011;57143;55.940;37.496;2022-10-03T03:14:11;13.00;;;6.40;;
69847;SDS011;57143;55.940;37.496;2022-10-03T03:17:10;11.23;;;5.70;;
69847;SDS011;57143;55.940;37.496;2022-10-03T03:19:53;11.23;;;6.47;;
69847;SDS011;57143;55.940;37.496;2022-10-03T03:22:40;13.43;;;6.47;;
69847;SDS011;57143;55.940;37.496;2022-10-03T03:25:28;12.73;;;6.35;;
69847;SDS011;57143;55.940;37.496;2022-10-03T03:28:17;11.33;;;5.07;;
69847;SDS011;57143;55.940;37.496;2022-10-03T03:30:58;10.73;;;5.30;;
69847;SDS011;57143;55.940;37.496;2022-10-03T03:33:36;12.45;;;5.93;;
69847;SDS011;57143;55.940;37.496;2022-10-03T03:36:17;12.20;;;5.15;;
69847;SDS011;57143;55.940;37.496;2022-10-03T03:38:56;12.80;;;5.80;;
69847;SDS011;57143;55.940;37.496;2022-10-03T03:41:45;9.90;;;5.20;;
69847;SDS011;57143;55.940;37.496;2022-10-03T03:44:29;13.05;;;6.30;;
69847;SDS011;57143;55.940;37.496;2022-10-03T03:47:19;11.43;;;6.13;;
69847;SDS011;57143;55.940;37.496;2022-10-03T03:50:08;11.02;;;5.05;;
69847;SDS011;57143;55.940;37.496;2022-10-03T03:52:51;9.57;;;5.00;;
69847;SDS011;57143;55.940;37.496;2022-10-03T03:55:32;10.37;;;5.33;;
69847;SDS011;57143;55.940;37.496;2022-10-03T03:58:19;11.13;;;5.72;;
69847;SDS011;57143;55.940;37.496;2022-10-03T04:00:57;10.70;;;5.63;;
69847;SDS011;57143;55.940;37.496;2022-10-03T04:03:45;13.60;;;6.80;;
69847;SDS011;57143;55.940;37.496;2022-10-03T04:06:24;13.05;;;6.50;;
69847;SDS011;57143;55.940;37.496;2022-10-03T04:09:10;15.77;;;7.60;;
69847;SDS011;57143;55.940;37.496;2022-10-03T04:11:53;12.18;;;7.10;;
69847;SDS011;57143;55.940;37.496;2022-10-03T04:21:00;14.98;;;8.52;;
69847;SDS011;57143;55.940;37.496;2022-10-03T04:23:48;14.37;;;7.93;;
69847;SDS011;57143;55.940;37.496;2022-10-03T04:26:30;15.13;;;9.00;;
69847;SDS011;57143;55.940;37.496;2022-10-03T04:29:16;16.45;;;8.90;;
69847;SDS011;57143;55.940;37.496;2022-10-03T04:31:59;17.25;;;8.73;;
69847;SDS011;57143;55.940;37.496;2022-10-03T04:34:38;17.70;;;10.57;;
69847;SDS011;57143;55.940;37.496;2022-10-03T04:37:18;14.53;;;7.53;;
69847;SDS011;57143;55.940;37.496;2022-10-03T04:39:57;15.05;;;9.05;;
69847;SDS011;57143;55.940;37.496;2022-10-03T04:42:37;17.00;;;9.90;;
69847;SDS011;57143;55.940;37.496;2022-10-03T04:48:15;14.98;;;9.57;;
69847;SDS011;57143;55.940;37.496;2022-10-03T04:50:56;20.33;;;10.97;;
69847;SDS011;57143;55.940;37.496;2022-10-03T04:53:43;18.48;;;9.43;;
69847;SDS011;57143;55.940;37.496;2022-10-03T04:59:21;17.80;;;9.77;;
69847;SDS011;57143;55.940;37.496;2022-10-03T05:01:57;19.10;;;10.80;;
69847;SDS011;57143;55.940;37.496;2022-10-03T05:04:31;16.27;;;9.03;;
69847;SDS011;57143;55.940;37.496;2022-10-03T05:07:05;16.85;;;10.07;;
69847;SDS011;57143;55.940;37.496;2022-10-03T05:09:41;18.02;;;10.75;;
69847;SDS011;57143;55.940;37.496;2022-10-03T05:12:24;16.63;;;10.73;;
69847;SDS011;57143;55.940;37.496;2022-10-03T05:15:01;18.35;;;10.10;;
69847;SDS011;57143;55.940;37.496;2022-10-03T05:17:42;15.63;;;9.90;;
69847;SDS011;57143;55.940;37.496;2022-10-03T05:20:26;19.02;;;10.35;;
69847;SDS011;57143;55.940;37.496;2022-10-03T05:23:18;17.70;;;9.27;;
69847;SDS011;57143;55.940;37.496;2022-10-03T05:25:57;15.48;;;9.73;;
69847;SDS011;57143;55.940;37.496;2022-10-03T05:28:34;17.50;;;10.35;;
69847;SDS011;57143;55.940;37.496;2022-10-03T05:31:11;18.57;;;9.47;;
69847;SDS011;57143;55.940;37.496;2022-10-03T05:33:51;17.92;;;8.77;;
69847;SDS011;57143;55.940;37.496;2022-10-03T05:36:32;15.93;;;9.05;;
69847;SDS011;57143;55.940;37.496;2022-10-03T05:45:21;13.57;;;8.10;;
69847;SDS011;57143;55.940;37.496;2022-10-03T05:47:59;14.60;;;8.35;;
69847;SDS011;57143;55.940;37.496;2022-10-03T05:50:54;16.35;;;8.60;;
69847;SDS011;57143;55.940;37.496;2022-10-03T05:56:42;16.38;;;7.80;;
69847;SDS011;57143;55.940;37.496;2022-10-03T06:02:39;14.43;;;7.78;;
69847;SDS011;57143;55.940;37.496;2022-10-03T06:05:30;13.82;;;7.15;;
69847;SDS011;57143;55.940;37.496;2022-10-03T06:11:26;14.98;;;6.32;;
69847;SDS011;57143;55.940;37.496;2022-10-03T06:17:39;13.65;;;5.70;;
69847;SDS011;57143;55.940;37.496;2022-10-03T06:20:29;11.23;;;6.05;;
69847;SDS011;57143;55.940;37.496;2022-10-03T06:23:26;11.50;;;5.28;;
69847;SDS011;57143;55.940;37.496;2022-10-03T06:26:19;10.55;;;5.45;;
69847;SDS011;57143;55.940;37.496;2022-10-03T06:29:12;12.13;;;6.20;;
69847;SDS011;57143;55.940;37.496;2022-10-03T06:35:12;12.05;;;5.35;;
69847;SDS011;57143;55.940;37.496;2022-10-03T06:38:18;10.65;;;5.28;;
69847;SDS011;57143;55.940;37.496;2022-10-03T06:44:30;11.45;;;5.57;;
69847;SDS011;57143;55.940;37.496;2022-10-03T06:47:26;10.47;;;5.60;;
69847;SDS011;57143;55.940;37.496;2022-10-03T06:53:12;12.43;;;5.82;;
69847;SDS011;57143;55.940;37.496;2022-10-03T06:56:11;10.68;;;5.40;;
69847;SDS011;57143;55.940;37.496;2022-10-03T07:01:58;14.10;;;5.10;;
69847;SDS011;57143;55.940;37.496;2022-10-03T07:07:50;11.40;;;4.45;;
69847;SDS011;57143;55.940;37.496;2022-10-03T07:10:50;13.30;;;4.75;;
69847;SDS011;57143;55.940;37.496;2022-10-03T07:13:43;14.75;;;5.60;;
69847;SDS011;57143;55.940;37.496;2022-10-03T07:16:47;10.63;;;4.97;;
69847;SDS011;57143;55.940;37.496;2022-10-03T07:19:42;10.73;;;4.82;;
69847;SDS011;57143;55.940;37.496;2022-10-03T07:22:44;12.57;;;4.50;;
69847;SDS011;57143;55.940;37.496;2022-10-03T07:25:38;11.50;;;4.15;;
69847;SDS011;57143;55.940;37.496;2022-10-03T07:28:37;12.73;;;6.00;;
69847;SDS011;57143;55.940;37.496;2022-10-03T07:31:27;9.30;;;4.43;;
69847;SDS011;57143;55.940;37.496;2022-10-03T07:37:17;11.20;;;4.88;;
69847;SDS011;57143;55.940;37.496;2022-10-03T07:40:32;9.45;;;4.57;;
69847;SDS011;57143;55.940;37.496;2022-10-03T07:43:33;11.73;;;4.75;;
69847;SDS011;57143;55.940;37.496;2022-10-03T07:46:24;12.17;;;4.57;;
69847;SDS011;57143;55.940;37.496;2022-10-03T07:49:10;16.42;;;4.70;;
69847;SDS011;57143;55.940;37.496;2022-10-03T07:51:55;13.40;;;4.35;;
69847;SDS011;57143;55.940;37.496;2022-10-03T07:54:55;12.27;;;5.28;;
69847;SDS011;57143;55.940;37.496;2022-10-03T07:58:06;10.32;;;4.72;;
69847;SDS011;57143;55.940;37.496;2022-10-03T08:00:56;10.43;;;4.40;;
69847;SDS011;57143;55.940;37.496;2022-10-03T08:06:39;14.18;;;4.32;;
69847;SDS011;57143;55.940;37.496;2022-10-03T08:09:17;8.68;;;3.50;;
69847;SDS011;57143;55.940;37.496;2022-10-03T08:12:19;12.55;;;4.72;;
69847;SDS011;57143;55.940;37.496;2022-10-03T08:15:21;17.37;;;4.10;;
69847;SDS011;57143;55.940;37.496;2022-10-03T08:18:05;11.73;;;3.75;;
69847;SDS011;57143;55.940;37.496;2022-10-03T08:20:54;7.88;;;3.85;;
69847;SDS011;57143;55.940;37.496;2022-10-03T08:23:48;11.93;;;4.90;;
69847;SDS011;57143;55.940;37.496;2022-10-03T08:26:44;11.77;;;4.10;;
69847;SDS011;57143;55.940;37.496;2022-10-03T08:32:55;13.63;;;4.07;;
69847;SDS011;57143;55.940;37.496;2022-10-03T08:35:31;8.32;;;3.35;;
69847;SDS011;57143;55.940;37.496;2022-10-03T08:47:20;9.45;;;3.33;;
69847;SDS011;57143;55.940;37.496;2022-10-03T08:50:29;11.82;;;3.63;;
69847;SDS011;57143;55.940;37.496;2022-10-03T08:56:14;9.55;;;4.10;;
69847;SDS011;57143;55.940;37.496;2022-10-03T08:59:11;7.10;;;3.33;;
69847;SDS011;57143;55.940;37.496;2022-10-03T09:17:03;7.78;;;2.30;;
69847;SDS011;57143;55.940;37.496;2022-10-03T09:20:06;7.05;;;3.30;;
69847;SDS011;57143;55.940;37.496;2022-10-03T09:23:14;8.68;;;2.83;;
69847;SDS011;57143;55.940;37.496;2022-10-03T09:26:15;6.40;;;2.80;;
69847;SDS011;57143;55.940;37.496;2022-10-03T09:29:08;7.27;;;3.10;;
69847;SDS011;57143;55.940;37.496;2022-10-03T09:35:13;8.00;;;3.40;;
69847;SDS011;57143;55.940;37.496;2022-10-03T09:44:17;9.43;;;3.23;;
69847;SDS011;57143;55.940;37.496;2022-10-03T09:47:13;10.70;;;3.30;;
69847;SDS011;57143;55.940;37.496;2022-10-03T09:53:32;8.48;;;3.15;;
69847;SDS011;57143;55.940;37.496;2022-10-03T09:56:28;8.02;;;3.03;;
69847;SDS011;57143;55.940;37.496;2022-10-03T09:59:23;8.67;;;3.57;;
69847;SDS011;57143;55.940;37.496;2022-10-03T10:05:23;7.88;;;3.25;;
69847;SDS011;57143;55.940;37.496;2022-10-03T10:08:16;7.68;;;3.67;;
69847;SDS011;57143;55.940;37.496;2022-10-03T10:11:08;7.95;;;3.50;;
69847;SDS011;57143;55.940;37.496;2022-10-03T10:20:02;9.23;;;3.17;;
69847;SDS011;57143;55.940;37.496;2022-10-03T10:25:51;10.05;;;4.25;;
69847;SDS011;57143;55.940;37.496;2022-10-03T10:35:00;8.95;;;4.07;;
69847;SDS011;57143;55.940;37.496;2022-10-03T11:00:18;5.53;;;1.20;;
69847;SDS011;57143;55.940;37.496;2022-10-03T11:06:24;5.13;;;1.00;;
69847;SDS011;57143;55.940;37.496;2022-10-03T11:09:44;3.90;;;0.90;;
69847;SDS011;57143;55.940;37.496;2022-10-03T11:12:25;3.78;;;0.80;;
69847;SDS011;57143;55.940;37.496;2022-10-03T11:15:53;4.50;;;1.10;;
69847;SDS011;57143;55.940;37.496;2022-10-03T11:19:17;4.45;;;0.90;;
69847;SDS011;57143;55.940;37.496;2022-10-03T11:25:15;6.35;;;1.42;;
69847;SDS011;57143;55.940;37.496;2022-10-03T11:37:49;5.43;;;1.58;;
69847;SDS011;57143;55.940;37.496;2022-10-03T11:40:26;4.65;;;1.58;;
69847;SDS011;57143;55.940;37.496;2022-10-03T11:43:24;4.40;;;1.10;;
69847;SDS011;57143;55.940;37.496;2022-10-03T11:46:16;6.53;;;1.40;;
69847;SDS011;57143;55.940;37.496;2022-10-03T11:48:50;7.32;;;2.13;;
69847;SDS011;57143;55.940;37.496;2022-10-03T11:51:29;5.75;;;1.58;;
69847;SDS011;57143;55.940;37.496;2022-10-03T11:54:07;5.63;;;1.63;;
69847;SDS011;57143;55.940;37.496;2022-10-03T11:56:45;5.65;;;1.98;;
69847;SDS011;57143;55.940;37.496;2022-10-03T11:59:27;5.77;;;1.57;;
69847;SDS011;57143;55.940;37.496;2022-10-03T12:02:13;4.85;;;1.20;;
69847;SDS011;57143;55.940;37.496;2022-10-03T12:04:55;6.85;;;2.22;;
69847;SDS011;57143;55.940;37.496;2022-10-03T12:07:31;4.90;;;1.50;;
69847;SDS011;57143;55.940;37.496;2022-10-03T12:10:30;6.20;;;1.77;;
69847;SDS011;57143;55.940;37.496;2022-10-03T12:13:05;4.93;;;1.20;;
69847;SDS011;57143;55.940;37.496;2022-10-03T12:15:41;4.15;;;1.20;;
69847;SDS011;57143;55.940;37.496;2022-10-03T12:18:13;4.28;;;1.10;;
69847;SDS011;57143;55.940;37.496;2022-10-03T12:23:52;4.90;;;1.15;;
69847;SDS011;57143;55.940;37.496;2022-10-03T12:26:46;4.27;;;1.07;;
69847;SDS011;57143;55.940;37.496;2022-10-03T12:29:21;3.58;;;0.68;;
69847;SDS011;57143;55.940;37.496;2022-10-03T12:31:55;4.68;;;1.13;;
69847;SDS011;57143;55.940;37.496;2022-10-03T12:34:41;6.28;;;1.35;;
69847;SDS011;57143;55.940;37.496;2022-10-03T12:37:27;4.60;;;1.10;;
69847;SDS011;57143;55.940;37.496;2022-10-03T12:40:05;4.10;;;1.20;;
69847;SDS011;57143;55.940;37.496;2022-10-03T12:42:43;4.07;;;1.08;;
69847;SDS011;57143;55.940;37.496;2022-10-03T12:45:19;4.20;;;0.80;;
69847;SDS011;57143;55.940;37.496;2022-10-03T12:47:57;4.00;;;0.73;;
69847;SDS011;57143;55.940;37.496;2022-10-03T12:50:37;4.05;;;0.98;;
69847;SDS011;57143;55.940;37.496;2022-10-03T12:53:20;4.03;;;0.97;;
69847;SDS011;57143;55.940;37.496;2022-10-03T12:56:03;3.97;;;0.93;;
69847;SDS011;57143;55.940;37.496;2022-10-03T12:58:45;5.70;;;1.35;;
69847;SDS011;57143;55.940;37.496;2022-10-03T13:01:24;3.15;;;0.70;;
69847;SDS011;57143;55.940;37.496;2022-10-03T13:03:57;4.28;;;0.73;;
69847;SDS011;57143;55.940;37.496;2022-10-03T13:06:33;3.53;;;0.70;;
69847;SDS011;57143;55.940;37.496;2022-10-03T13:09:17;4.78;;;0.80;;
69847;SDS011;57143;55.940;37.496;2022-10-03T13:11:54;3.10;;;0.70;;
69847;SDS011;57143;55.940;37.496;2022-10-03T13:14:36;2.60;;;0.60;;
69847;SDS011;57143;55.940;37.496;2022-10-03T13:17:31;3.35;;;0.70;;
69847;SDS011;57143;55.940;37.496;2022-10-03T13:20:09;4.00;;;0.60;;
69847;SDS011;57143;55.940;37.496;2022-10-03T13:22:44;4.72;;;0.70;;
69847;SDS011;57143;55.940;37.496;2022-10-03T13:25:19;4.80;;;0.88;;
69847;SDS011;57143;55.940;37.496;2022-10-03T13:27:54;5.30;;;0.98;;
69847;SDS011;57143;55.940;37.496;2022-10-03T13:30:29;3.30;;;0.60;;
69847;SDS011;57143;55.940;37.496;2022-10-03T13:33:06;5.97;;;0.90;;
69847;SDS011;57143;55.940;37.496;2022-10-03T13:35:42;3.92;;;0.70;;
69847;SDS011;57143;55.940;37.496;2022-10-03T13:38:34;4.10;;;0.70;;
69847;SDS011;57143;55.940;37.496;2022-10-03T13:41:24;4.60;;;0.80;;
69847;SDS011;57143;55.940;37.496;2022-10-03T13:43:57;4.03;;;0.90;;
69847;SDS011;57143;55.940;37.496;2022-10-03T13:46:31;3.63;;;0.80;;
69847;SDS011;57143;55.940;37.496;2022-10-03T13:49:10;3.92;;;1.10;;
69847;SDS011;57143;55.940;37.496;2022-10-03T13:51:45;4.28;;;0.88;;
69847;SDS011;57143;55.940;37.496;2022-10-03T13:54:20;3.75;;;0.88;;
69847;SDS011;57143;55.940;37.496;2022-10-03T13:57:04;3.90;;;0.80;;
69847;SDS011;57143;55.940;37.496;2022-10-03T13:59:47;4.60;;;0.90;;
69847;SDS011;57143;55.940;37.496;2022-10-03T14:02:38;3.47;;;0.63;;
69847;SDS011;57143;55.940;37.496;2022-10-03T14:05:24;3.58;;;0.82;;
69847;SDS011;57143;55.940;37.496;2022-10-03T14:08:14;3.78;;;0.70;;
69847;SDS011;57143;55.940;37.496;2022-10-03T14:11:06;2.85;;;0.60;;
69847;SDS011;57143;55.940;37.496;2022-10-03T14:13:51;5.53;;;0.70;;
69847;SDS011;57143;55.940;37.496;2022-10-03T14:16:41;3.70;;;0.52;;
69847;SDS011;57143;55.940;37.496;2022-10-03T14:19:16;2.17;;;0.50;;
69847;SDS011;57143;55.940;37.496;2022-10-03T14:21:57;4.55;;;0.57;;
69847;SDS011;57143;55.940;37.496;2022-10-03T14:24:41;2.50;;;0.50;;
69847;SDS011;57143;55.940;37.496;2022-10-03T14:27:33;4.30;;;0.70;;
69847;SDS011;57143;55.940;37.496;2022-10-03T14:30:08;3.05;;;0.52;;
69847;SDS011;57143;55.940;37.496;2022-10-03T14:32:46;3.28;;;0.57;;
69847;SDS011;57143;55.940;37.496;2022-10-03T14:41:26;2.83;;;0.67;;
69847;SDS011;57143;55.940;37.496;2022-10-03T14:44:08;5.30;;;0.70;;
69847;SDS011;57143;55.940;37.496;2022-10-03T14:46:40;3.45;;;0.65;;
69847;SDS011;57143;55.940;37.496;2022-10-03T14:49:16;3.42;;;0.80;;
69847;SDS011;57143;55.940;37.496;2022-10-03T14:51:50;3.00;;;0.52;;
69847;SDS011;57143;55.940;37.496;2022-10-03T14:54:23;3.60;;;0.53;;
69847;SDS011;57143;55.940;37.496;2022-10-03T14:56:52;2.78;;;0.55;;
69847;SDS011;57143;55.940;37.496;2022-10-03T14:59:21;2.65;;;0.40;;
69847;SDS011;57143;55.940;37.496;2022-10-03T15:01:52;3.53;;;0.70;;
69847;SDS011;57143;55.940;37.496;2022-10-03T15:04:29;3.30;;;0.60;;
69847;SDS011;57143;55.940;37.496;2022-10-03T15:07:01;11.03;;;0.80;;
69847;SDS011;57143;55.940;37.496;2022-10-03T15:09:31;4.78;;;0.80;;
69847;SDS011;57143;55.940;37.496;2022-10-03T15:12:08;3.45;;;0.70;;
69847;SDS011;57143;55.940;37.496;2022-10-03T15:14:40;3.72;;;0.80;;
69847;SDS011;57143;55.940;37.496;2022-10-03T15:17:16;3.60;;;0.85;;
69847;SDS011;57143;55.940;37.496;2022-10-03T15:19:49;4.03;;;0.50;;
69847;SDS011;57143;55.940;37.496;2022-10-03T15:22:30;4.82;;;0.77;;
69847;SDS011;57143;55.940;37.496;2022-10-03T15:25:02;3.03;;;0.63;;
69847;SDS011;57143;55.940;37.496;2022-10-03T15:27:34;6.32;;;0.82;;
69847;SDS011;57143;55.940;37.496;2022-10-03T15:30:05;3.53;;;0.60;;
69847;SDS011;57143;55.940;37.496;2022-10-03T15:32:34;3.10;;;0.50;;
69847;SDS011;57143;55.940;37.496;2022-10-03T15:35:14;4.45;;;0.50;;
69847;SDS011;57143;55.940;37.496;2022-10-03T15:37:44;4.65;;;0.80;;
69847;SDS011;57143;55.940;37.496;2022-10-03T15:40:20;4.40;;;0.63;;
69847;SDS011;57143;55.940;37.496;2022-10-03T15:42:51;4.43;;;0.80;;
69847;SDS011;57143;55.940;37.496;2022-10-03T15:45:29;4.37;;;0.70;;
69847;SDS011;57143;55.940;37.496;2022-10-03T15:47:59;4.68;;;0.80;;
69847;SDS011;57143;55.940;37.496;2022-10-03T15:50:33;4.60;;;0.70;;
69847;SDS011;57143;55.940;37.496;2022-10-03T15:53:06;3.60;;;0.70;;
69847;SDS011;57143;55.940;37.496;2022-10-03T15:55:39;5.03;;;0.60;;
69847;SDS011;57143;55.940;37.496;2022-10-03T15:58:15;3.70;;;0.70;;
69847;SDS011;57143;55.940;37.496;2022-10-03T16:00:47;4.80;;;0.70;;
69847;SDS011;57143;55.940;37.496;2022-10-03T16:03:22;5.93;;;1.10;;
69847;SDS011;57143;55.940;37.496;2022-10-03T16:06:02;7.55;;;1.02;;
69847;SDS011;57143;55.940;37.496;2022-10-03T16:08:41;4.85;;;0.82;;
69847;SDS011;57143;55.940;37.496;2022-10-03T16:11:19;4.73;;;0.70;;
69847;SDS011;57143;55.940;37.496;2022-10-03T16:13:52;3.17;;;0.65;;
69847;SDS011;57143;55.940;37.496;2022-10-03T16:16:31;2.72;;;0.60;;
69847;SDS011;57143;55.940;37.496;2022-10-03T16:19:18;4.05;;;0.63;;
69847;SDS011;57143;55.940;37.496;2022-10-03T16:21:51;6.95;;;0.70;;
69847;SDS011;57143;55.940;37.496;2022-10-03T16:24:31;3.83;;;0.70;;
69847;SDS011;57143;55.940;37.496;2022-10-03T16:27:06;3.05;;;0.65;;
69847;SDS011;57143;55.940;37.496;2022-10-03T16:29:42;3.17;;;0.60;;
69847;SDS011;57143;55.940;37.496;2022-10-03T16:32:17;3.80;;;0.65;;
69847;SDS011;57143;55.940;37.496;2022-10-03T16:34:47;3.63;;;0.80;;
69847;SDS011;57143;55.940;37.496;2022-10-03T16:37:18;6.97;;;1.00;;
69847;SDS011;57143;55.940;37.496;2022-10-03T16:39:52;6.13;;;0.70;;
69847;SDS011;57143;55.940;37.496;2022-10-03T16:42:23;4.13;;;0.77;;
69847;SDS011;57143;55.940;37.496;2022-10-03T16:44:54;4.20;;;0.80;;
69847;SDS011;57143;55.940;37.496;2022-10-03T16:47:31;5.90;;;0.70;;
69847;SDS011;57143;55.940;37.496;2022-10-03T16:50:00;6.80;;;0.90;;
69847;SDS011;57143;55.940;37.496;2022-10-03T16:52:48;3.53;;;0.60;;
69847;SDS011;57143;55.940;37.496;2022-10-03T16:55:20;3.92;;;1.42;;
69847;SDS011;57143;55.940;37.496;2022-10-03T16:57:54;3.92;;;0.70;;
69847;SDS011;57143;55.940;37.496;2022-10-03T17:00:25;4.05;;;0.75;;
69847;SDS011;57143;55.940;37.496;2022-10-03T17:03:00;4.23;;;0.80;;
69847;SDS011;57143;55.940;37.496;2022-10-03T17:05:28;3.10;;;0.65;;
69847;SDS011;57143;55.940;37.496;2022-10-03T17:08:02;2.83;;;0.50;;
69847;SDS011;57143;55.940;37.496;2022-10-03T17:10:35;3.28;;;0.80;;
69847;SDS011;57143;55.940;37.496;2022-10-03T17:13:05;3.80;;;0.60;;
69847;SDS011;57143;55.940;37.496;2022-10-03T17:15:43;3.03;;;0.53;;
69847;SDS011;57143;55.940;37.496;2022-10-03T17:18:22;3.67;;;0.45;;
69847;SDS011;57143;55.940;37.496;2022-10-03T17:20:55;2.17;;;0.40;;
69847;SDS011;57143;55.940;37.496;2022-10-03T17:23:36;4.30;;;0.80;;
69847;SDS011;57143;55.940;37.496;2022-10-03T17:26:06;3.47;;;0.68;;
69847;SDS011;57143;55.940;37.496;2022-10-03T17:28:42;3.87;;;0.60;;
69847;SDS011;57143;55.940;37.496;2022-10-03T17:31:22;3.35;;;0.65;;
69847;SDS011;57143;55.940;37.496;2022-10-03T17:33:56;2.92;;;0.60;;
69847;SDS011;57143;55.940;37.496;2022-10-03T17:36:37;3.47;;;0.70;;
69847;SDS011;57143;55.940;37.496;2022-10-03T17:39:16;3.33;;;0.68;;
69847;SDS011;57143;55.940;37.496;2022-10-03T17:41:55;3.03;;;0.50;;
69847;SDS011;57143;55.940;37.496;2022-10-03T17:44:32;3.10;;;0.50;;
69847;SDS011;57143;55.940;37.496;2022-10-03T17:47:09;3.05;;;0.60;;
69847;SDS011;57143;55.940;37.496;2022-10-03T17:49:44;3.00;;;0.55;;
69847;SDS011;57143;55.940;37.496;2022-10-03T17:52:22;3.20;;;0.60;;
69847;SDS011;57143;55.940;37.496;2022-10-03T17:54:56;3.80;;;0.67;;
69847;SDS011;57143;55.940;37.496;2022-10-03T17:57:31;3.88;;;0.52;;
69847;SDS011;57143;55.940;37.496;2022-10-03T18:00:04;3.55;;;0.88;;
69847;SDS011;57143;55.940;37.496;2022-10-03T18:02:35;2.95;;;0.50;;
69847;SDS011;57143;55.940;37.496;2022-10-03T18:05:12;4.18;;;0.70;;
69847;SDS011;57143;55.940;37.496;2022-10-03T18:07:44;6.07;;;1.43;;
69847;SDS011;57143;55.940;37.496;2022-10-03T18:10:18;4.53;;;0.90;;
69847;SDS011;57143;55.940;37.496;2022-10-03T18:12:48;3.17;;;0.75;;
69847;SDS011;57143;55.940;37.496;2022-10-03T18:15:43;4.30;;;1.00;;
69847;SDS011;57143;55.940;37.496;2022-10-03T18:21:52;6.27;;;0.80;;
69847;SDS011;57143;55.940;37.496;2022-10-03T18:24:49;4.20;;;1.00;;
69847;SDS011;57143;55.940;37.496;2022-10-03T18:30:18;4.78;;;1.02;;
69847;SDS011;57143;55.940;37.496;2022-10-03T18:32:48;5.13;;;1.40;;
69847;SDS011;57143;55.940;37.496;2022-10-03T18:35:19;6.97;;;1.60;;
69847;SDS011;57143;55.940;37.496;2022-10-03T18:37:52;5.28;;;1.50;;
69847;SDS011;57143;55.940;37.496;2022-10-03T18:40:34;4.68;;;1.00;;
69847;SDS011;57143;55.940;37.496;2022-10-03T18:43:23;4.22;;;1.17;;
69847;SDS011;57143;55.940;37.496;2022-10-03T18:45:54;3.80;;;0.90;;
69847;SDS011;57143;55.940;37.496;2022-10-03T18:48:29;4.83;;;1.10;;
69847;SDS011;57143;55.940;37.496;2022-10-03T18:51:03;5.57;;;1.27;;
69847;SDS011;57143;55.940;37.496;2022-10-03T18:53:39;3.55;;;0.75;;
69847;SDS011;57143;55.940;37.496;2022-10-03T18:56:11;3.88;;;0.85;;
69847;SDS011;57143;55.940;37.496;2022-10-03T18:58:47;3.78;;;0.82;;
69847;SDS011;57143;55.940;37.496;2022-10-03T19:01:26;4.57;;;1.10;;
69847;SDS011;57143;55.940;37.496;2022-10-03T19:04:03;4.47;;;1.20;;
69847;SDS011;57143;55.940;37.496;2022-10-03T19:06:35;4.68;;;1.13;;
69847;SDS011;57143;55.940;37.496;2022-10-03T19:09:05;5.05;;;1.20;;
69847;SDS011;57143;55.940;37.496;2022-10-03T19:11:40;4.25;;;1.00;;
69847;SDS011;57143;55.940;37.496;2022-10-03T19:14:15;5.90;;;1.20;;